BDS weather

Brindisi – Salento Airport
Brindisi, Apulia, Italy

Public forecast

Using degrees Celsius for public forecast. Weather courtesy of forecast.io.

METAR (pilot weather report)

Retrieved 2019/05/24 00:20 UTC (10 minutes ago):

LIBR 240020Z 26008KT CAVOK 15/10 Q1013

TAF (pilot weather forecast)

Forecast is more than 12 hours old.

Retrieved 2019/05/23 00:00 UTC (1 day ago):

TAF LIBR 232300Z 2400/2424 29010KT CAVOK BECMG 2406/2408 36012KT BECMG 2418/2420 29008KT